General Fotheringham, Argentina
Current Conditions -  °F | °C
As of 12:00 AM on Saturday 20 Dec 2014 (Local Time) from SAOC Reporting Station
Few Clouds Few Clouds  
Wind Chill: 79°   Ceiling: Unl
Heat Index: 80°   Visibility: 6mi
Dew Point: 57°   Wind: 15mph
Humidity: 47%   Direction: 360°N
Pressure: 59.03"   Gusts: NA
Location:  32.29°S, 63.93°W
Report Text: SAOC 200300Z 36013KT 9999 RE FEW030 FEW040CB26/14 Q1999
Loading
Personal Weather Stations






























Interactive Weather Map New forecast layout! Learn more

10-Day Weather Forecast

Advertisements
Track Severe Weather on mobile